sensor_id;sensor_type;location;lat;lon;timestamp;P1;durP1;ratioP1;P2;durP2;ratioP2
58621;SDS011;44389;51.578;5.456;2024-03-02T00:01:53;0.30;;;0.30;;
58621;SDS011;44389;51.578;5.456;2024-03-02T00:04:18;0.30;;;0.30;;
58621;SDS011;44389;51.578;5.456;2024-03-02T00:06:44;0.30;;;0.30;;
58621;SDS011;44389;51.578;5.456;2024-03-02T00:09:10;0.22;;;0.22;;
58621;SDS011;44389;51.578;5.456;2024-03-02T00:11:37;0.20;;;0.20;;
58621;SDS011;44389;51.578;5.456;2024-03-02T00:14:03;0.30;;;0.30;;
58621;SDS011;44389;51.578;5.456;2024-03-02T00:16:30;0.20;;;0.20;;
58621;SDS011;44389;51.578;5.456;2024-03-02T00:18:56;0.23;;;0.23;;
58621;SDS011;44389;51.578;5.456;2024-03-02T00:21:24;0.30;;;0.30;;
58621;SDS011;44389;51.578;5.456;2024-03-02T00:23:52;0.30;;;0.30;;
58621;SDS011;44389;51.578;5.456;2024-03-02T00:26:18;0.30;;;0.30;;
58621;SDS011;44389;51.578;5.456;2024-03-02T00:28:44;0.30;;;0.30;;
58621;SDS011;44389;51.578;5.456;2024-03-02T00:36:12;0.30;;;0.30;;
58621;SDS011;44389;51.578;5.456;2024-03-02T00:38:49;0.40;;;0.40;;
58621;SDS011;44389;51.578;5.456;2024-03-02T00:41:17;0.40;;;0.40;;
58621;SDS011;44389;51.578;5.456;2024-03-02T00:43:56;0.30;;;0.30;;
58621;SDS011;44389;51.578;5.456;2024-03-02T00:46:23;0.30;;;0.30;;
58621;SDS011;44389;51.578;5.456;2024-03-02T00:48:56;0.40;;;0.40;;
58621;SDS011;44389;51.578;5.456;2024-03-02T00:51:23;0.32;;;0.32;;
58621;SDS011;44389;51.578;5.456;2024-03-02T00:53:50;0.30;;;0.30;;
58621;SDS011;44389;51.578;5.456;2024-03-02T00:56:17;0.32;;;0.32;;
58621;SDS011;44389;51.578;5.456;2024-03-02T00:58:43;0.40;;;0.40;;
58621;SDS011;44389;51.578;5.456;2024-03-02T01:01:08;0.30;;;0.30;;
58621;SDS011;44389;51.578;5.456;2024-03-02T01:03:34;0.40;;;0.40;;
58621;SDS011;44389;51.578;5.456;2024-03-02T01:06:00;0.30;;;0.30;;
58621;SDS011;44389;51.578;5.456;2024-03-02T01:08:25;0.22;;;0.22;;
58621;SDS011;44389;51.578;5.456;2024-03-02T01:10:51;0.30;;;0.30;;
58621;SDS011;44389;51.578;5.456;2024-03-02T01:13:16;0.30;;;0.30;;
58621;SDS011;44389;51.578;5.456;2024-03-02T01:15:42;0.30;;;0.30;;
58621;SDS011;44389;51.578;5.456;2024-03-02T01:18:07;0.38;;;0.38;;
58621;SDS011;44389;51.578;5.456;2024-03-02T01:20:32;0.30;;;0.30;;
58621;SDS011;44389;51.578;5.456;2024-03-02T01:22:58;0.30;;;0.30;;
58621;SDS011;44389;51.578;5.456;2024-03-02T01:25:23;0.30;;;0.30;;
58621;SDS011;44389;51.578;5.456;2024-03-02T01:27:48;0.30;;;0.30;;
58621;SDS011;44389;51.578;5.456;2024-03-02T01:30:14;0.30;;;0.30;;
58621;SDS011;44389;51.578;5.456;2024-03-02T01:32:39;0.30;;;0.30;;
58621;SDS011;44389;51.578;5.456;2024-03-02T01:35:05;0.30;;;0.30;;
58621;SDS011;44389;51.578;5.456;2024-03-02T01:37:30;0.30;;;0.30;;
58621;SDS011;44389;51.578;5.456;2024-03-02T01:39:56;0.35;;;0.35;;
58621;SDS011;44389;51.578;5.456;2024-03-02T01:42:21;0.35;;;0.35;;
58621;SDS011;44389;51.578;5.456;2024-03-02T01:44:47;0.30;;;0.30;;
58621;SDS011;44389;51.578;5.456;2024-03-02T01:47:12;0.40;;;0.40;;
58621;SDS011;44389;51.578;5.456;2024-03-02T01:49:37;0.30;;;0.30;;
58621;SDS011;44389;51.578;5.456;2024-03-02T01:52:03;0.30;;;0.30;;
58621;SDS011;44389;51.578;5.456;2024-03-02T01:54:29;0.30;;;0.30;;
58621;SDS011;44389;51.578;5.456;2024-03-02T01:56:54;0.30;;;0.30;;
58621;SDS011;44389;51.578;5.456;2024-03-02T01:59:20;0.38;;;0.38;;
58621;SDS011;44389;51.578;5.456;2024-03-02T02:01:45;0.40;;;0.40;;
58621;SDS011;44389;51.578;5.456;2024-03-02T02:04:10;0.30;;;0.30;;
58621;SDS011;44389;51.578;5.456;2024-03-02T02:06:36;0.30;;;0.30;;
58621;SDS011;44389;51.578;5.456;2024-03-02T02:09:01;0.30;;;0.30;;
58621;SDS011;44389;51.578;5.456;2024-03-02T02:11:27;0.30;;;0.30;;
58621;SDS011;44389;51.578;5.456;2024-03-02T02:13:52;0.40;;;0.40;;
58621;SDS011;44389;51.578;5.456;2024-03-02T02:16:20;0.40;;;0.40;;
58621;SDS011;44389;51.578;5.456;2024-03-02T02:18:45;0.20;;;0.20;;
58621;SDS011;44389;51.578;5.456;2024-03-02T02:21:11;0.30;;;0.30;;
58621;SDS011;44389;51.578;5.456;2024-03-02T02:23:36;0.30;;;0.30;;
58621;SDS011;44389;51.578;5.456;2024-03-02T02:26:01;0.30;;;0.30;;
58621;SDS011;44389;51.578;5.456;2024-03-02T02:28:28;0.32;;;0.32;;
58621;SDS011;44389;51.578;5.456;2024-03-02T02:30:54;0.30;;;0.30;;
58621;SDS011;44389;51.578;5.456;2024-03-02T02:33:21;0.30;;;0.30;;
58621;SDS011;44389;51.578;5.456;2024-03-02T02:35:46;0.40;;;0.40;;
58621;SDS011;44389;51.578;5.456;2024-03-02T02:38:11;0.30;;;0.30;;
58621;SDS011;44389;51.578;5.456;2024-03-02T02:40:37;0.32;;;0.32;;
58621;SDS011;44389;51.578;5.456;2024-03-02T02:43:02;0.30;;;0.30;;
58621;SDS011;44389;51.578;5.456;2024-03-02T02:45:27;0.30;;;0.30;;
58621;SDS011;44389;51.578;5.456;2024-03-02T02:47:53;0.40;;;0.40;;
58621;SDS011;44389;51.578;5.456;2024-03-02T02:50:18;0.30;;;0.30;;
58621;SDS011;44389;51.578;5.456;2024-03-02T02:52:43;0.40;;;0.40;;
58621;SDS011;44389;51.578;5.456;2024-03-02T02:55:09;0.35;;;0.35;;
58621;SDS011;44389;51.578;5.456;2024-03-02T02:57:36;0.30;;;0.30;;
58621;SDS011;44389;51.578;5.456;2024-03-02T03:02:43;0.30;;;0.30;;
58621;SDS011;44389;51.578;5.456;2024-03-02T03:05:10;0.20;;;0.20;;
58621;SDS011;44389;51.578;5.456;2024-03-02T03:07:37;0.30;;;0.30;;
58621;SDS011;44389;51.578;5.456;2024-03-02T03:10:04;0.30;;;0.30;;
58621;SDS011;44389;51.578;5.456;2024-03-02T03:12:31;0.30;;;0.30;;
58621;SDS011;44389;51.578;5.456;2024-03-02T03:14:57;0.30;;;0.30;;
58621;SDS011;44389;51.578;5.456;2024-03-02T03:17:22;0.40;;;0.40;;
58621;SDS011;44389;51.578;5.456;2024-03-02T03:19:48;0.40;;;0.40;;
58621;SDS011;44389;51.578;5.456;2024-03-02T03:22:14;0.30;;;0.30;;
58621;SDS011;44389;51.578;5.456;2024-03-02T03:24:39;0.30;;;0.30;;
58621;SDS011;44389;51.578;5.456;2024-03-02T03:27:05;0.32;;;0.32;;
58621;SDS011;44389;51.578;5.456;2024-03-02T03:29:30;0.22;;;0.22;;
58621;SDS011;44389;51.578;5.456;2024-03-02T03:31:55;0.30;;;0.30;;
58621;SDS011;44389;51.578;5.456;2024-03-02T03:34:20;0.30;;;0.30;;
58621;SDS011;44389;51.578;5.456;2024-03-02T03:36:46;0.40;;;0.40;;
58621;SDS011;44389;51.578;5.456;2024-03-02T03:39:11;0.30;;;0.30;;
58621;SDS011;44389;51.578;5.456;2024-03-02T03:41:36;0.30;;;0.30;;
58621;SDS011;44389;51.578;5.456;2024-03-02T03:44:02;0.40;;;0.40;;
58621;SDS011;44389;51.578;5.456;2024-03-02T03:46:28;0.30;;;0.30;;
58621;SDS011;44389;51.578;5.456;2024-03-02T03:48:54;0.38;;;0.38;;
58621;SDS011;44389;51.578;5.456;2024-03-02T03:51:20;0.40;;;0.40;;
58621;SDS011;44389;51.578;5.456;2024-03-02T03:53:47;0.20;;;0.20;;
58621;SDS011;44389;51.578;5.456;2024-03-02T03:56:12;0.30;;;0.30;;
58621;SDS011;44389;51.578;5.456;2024-03-02T03:58:38;0.30;;;0.30;;
58621;SDS011;44389;51.578;5.456;2024-03-02T04:01:03;0.30;;;0.30;;
58621;SDS011;44389;51.578;5.456;2024-03-02T04:03:28;0.30;;;0.30;;
58621;SDS011;44389;51.578;5.456;2024-03-02T04:05:54;0.30;;;0.30;;
58621;SDS011;44389;51.578;5.456;2024-03-02T04:08:19;0.30;;;0.30;;
58621;SDS011;44389;51.578;5.456;2024-03-02T04:10:44;0.40;;;0.40;;
58621;SDS011;44389;51.578;5.456;2024-03-02T04:13:10;0.30;;;0.30;;
58621;SDS011;44389;51.578;5.456;2024-03-02T04:15:35;0.40;;;0.40;;
58621;SDS011;44389;51.578;5.456;2024-03-02T04:18:00;0.30;;;0.30;;
58621;SDS011;44389;51.578;5.456;2024-03-02T04:20:25;0.30;;;0.30;;
58621;SDS011;44389;51.578;5.456;2024-03-02T04:22:51;0.30;;;0.30;;
58621;SDS011;44389;51.578;5.456;2024-03-02T04:25:16;0.30;;;0.30;;
58621;SDS011;44389;51.578;5.456;2024-03-02T04:27:41;0.30;;;0.30;;
58621;SDS011;44389;51.578;5.456;2024-03-02T04:30:07;0.30;;;0.30;;
58621;SDS011;44389;51.578;5.456;2024-03-02T04:32:32;0.30;;;0.30;;
58621;SDS011;44389;51.578;5.456;2024-03-02T04:34:57;0.20;;;0.20;;
58621;SDS011;44389;51.578;5.456;2024-03-02T04:37:23;0.30;;;0.30;;
58621;SDS011;44389;51.578;5.456;2024-03-02T04:39:48;0.30;;;0.30;;
58621;SDS011;44389;51.578;5.456;2024-03-02T04:42:13;0.30;;;0.30;;
58621;SDS011;44389;51.578;5.456;2024-03-02T04:44:39;0.30;;;0.30;;
58621;SDS011;44389;51.578;5.456;2024-03-02T04:47:04;0.40;;;0.40;;
58621;SDS011;44389;51.578;5.456;2024-03-02T04:49:30;0.30;;;0.30;;
58621;SDS011;44389;51.578;5.456;2024-03-02T04:51:55;0.30;;;0.30;;
58621;SDS011;44389;51.578;5.456;2024-03-02T04:54:21;0.30;;;0.30;;
58621;SDS011;44389;51.578;5.456;2024-03-02T04:56:47;0.30;;;0.30;;
58621;SDS011;44389;51.578;5.456;2024-03-02T04:59:18;0.40;;;0.40;;
58621;SDS011;44389;51.578;5.456;2024-03-02T05:01:44;0.40;;;0.40;;
58621;SDS011;44389;51.578;5.456;2024-03-02T05:04:10;0.38;;;0.38;;
58621;SDS011;44389;51.578;5.456;2024-03-02T05:06:39;0.30;;;0.30;;
58621;SDS011;44389;51.578;5.456;2024-03-02T05:09:05;0.30;;;0.30;;
58621;SDS011;44389;51.578;5.456;2024-03-02T05:11:31;0.28;;;0.28;;
58621;SDS011;44389;51.578;5.456;2024-03-02T05:14:03;0.25;;;0.25;;
58621;SDS011;44389;51.578;5.456;2024-03-02T05:16:28;0.30;;;0.30;;
58621;SDS011;44389;51.578;5.456;2024-03-02T05:18:53;0.38;;;0.38;;
58621;SDS011;44389;51.578;5.456;2024-03-02T05:21:19;0.30;;;0.30;;
58621;SDS011;44389;51.578;5.456;2024-03-02T05:23:44;0.22;;;0.22;;
58621;SDS011;44389;51.578;5.456;2024-03-02T05:26:09;0.40;;;0.40;;
58621;SDS011;44389;51.578;5.456;2024-03-02T05:28:37;0.30;;;0.30;;
58621;SDS011;44389;51.578;5.456;2024-03-02T05:31:03;0.30;;;0.30;;
58621;SDS011;44389;51.578;5.456;2024-03-02T05:33:28;0.30;;;0.30;;
58621;SDS011;44389;51.578;5.456;2024-03-02T05:35:56;0.40;;;0.40;;
58621;SDS011;44389;51.578;5.456;2024-03-02T05:38:21;0.30;;;0.30;;
58621;SDS011;44389;51.578;5.456;2024-03-02T05:40:46;0.30;;;0.30;;
58621;SDS011;44389;51.578;5.456;2024-03-02T05:43:12;0.30;;;0.30;;
58621;SDS011;44389;51.578;5.456;2024-03-02T05:45:37;0.30;;;0.30;;
58621;SDS011;44389;51.578;5.456;2024-03-02T05:48:02;0.40;;;0.40;;
58621;SDS011;44389;51.578;5.456;2024-03-02T05:50:28;0.30;;;0.30;;
58621;SDS011;44389;51.578;5.456;2024-03-02T05:52:53;0.40;;;0.40;;
58621;SDS011;44389;51.578;5.456;2024-03-02T05:55:18;0.40;;;0.40;;
58621;SDS011;44389;51.578;5.456;2024-03-02T05:57:44;0.40;;;0.40;;
58621;SDS011;44389;51.578;5.456;2024-03-02T06:00:09;0.40;;;0.40;;
58621;SDS011;44389;51.578;5.456;2024-03-02T06:02:38;0.30;;;0.30;;
58621;SDS011;44389;51.578;5.456;2024-03-02T06:05:04;0.30;;;0.30;;
58621;SDS011;44389;51.578;5.456;2024-03-02T06:07:29;0.30;;;0.30;;
58621;SDS011;44389;51.578;5.456;2024-03-02T06:09:55;0.30;;;0.30;;
58621;SDS011;44389;51.578;5.456;2024-03-02T06:12:20;0.32;;;0.32;;
58621;SDS011;44389;51.578;5.456;2024-03-02T06:14:45;0.40;;;0.40;;
58621;SDS011;44389;51.578;5.456;2024-03-02T06:17:11;0.40;;;0.40;;
58621;SDS011;44389;51.578;5.456;2024-03-02T06:19:36;0.38;;;0.38;;
58621;SDS011;44389;51.578;5.456;2024-03-02T06:22:01;0.30;;;0.30;;
58621;SDS011;44389;51.578;5.456;2024-03-02T06:24:27;0.30;;;0.30;;
58621;SDS011;44389;51.578;5.456;2024-03-02T06:26:52;0.30;;;0.30;;
58621;SDS011;44389;51.578;5.456;2024-03-02T06:29:17;0.38;;;0.38;;
58621;SDS011;44389;51.578;5.456;2024-03-02T06:31:42;0.40;;;0.40;;
58621;SDS011;44389;51.578;5.456;2024-03-02T06:34:08;0.40;;;0.40;;
58621;SDS011;44389;51.578;5.456;2024-03-02T06:36:33;0.30;;;0.30;;
58621;SDS011;44389;51.578;5.456;2024-03-02T06:38:59;0.30;;;0.30;;
58621;SDS011;44389;51.578;5.456;2024-03-02T06:41:24;0.30;;;0.30;;
58621;SDS011;44389;51.578;5.456;2024-03-02T06:43:51;0.30;;;0.30;;
58621;SDS011;44389;51.578;5.456;2024-03-02T06:46:24;0.40;;;0.40;;
58621;SDS011;44389;51.578;5.456;2024-03-02T06:48:49;0.40;;;0.40;;
58621;SDS011;44389;51.578;5.456;2024-03-02T06:51:14;0.40;;;0.40;;
58621;SDS011;44389;51.578;5.456;2024-03-02T06:53:40;0.30;;;0.30;;
58621;SDS011;44389;51.578;5.456;2024-03-02T06:56:06;0.30;;;0.30;;
58621;SDS011;44389;51.578;5.456;2024-03-02T06:58:33;0.40;;;0.40;;
58621;SDS011;44389;51.578;5.456;2024-03-02T07:00:58;0.30;;;0.30;;
58621;SDS011;44389;51.578;5.456;2024-03-02T07:03:25;0.30;;;0.30;;
58621;SDS011;44389;51.578;5.456;2024-03-02T07:05:51;0.30;;;0.30;;
58621;SDS011;44389;51.578;5.456;2024-03-02T07:08:16;0.30;;;0.30;;
58621;SDS011;44389;51.578;5.456;2024-03-02T07:10:41;0.30;;;0.30;;
58621;SDS011;44389;51.578;5.456;2024-03-02T07:13:06;0.40;;;0.40;;
58621;SDS011;44389;51.578;5.456;2024-03-02T07:15:32;0.40;;;0.40;;
58621;SDS011;44389;51.578;5.456;2024-03-02T07:18:16;0.40;;;0.40;;
58621;SDS011;44389;51.578;5.456;2024-03-02T07:20:41;0.40;;;0.40;;
58621;SDS011;44389;51.578;5.456;2024-03-02T07:23:06;0.35;;;0.35;;
58621;SDS011;44389;51.578;5.456;2024-03-02T07:25:32;0.40;;;0.40;;
58621;SDS011;44389;51.578;5.456;2024-03-02T07:27:57;0.30;;;0.30;;
58621;SDS011;44389;51.578;5.456;2024-03-02T07:30:22;0.30;;;0.30;;
58621;SDS011;44389;51.578;5.456;2024-03-02T07:32:49;0.30;;;0.30;;
58621;SDS011;44389;51.578;5.456;2024-03-02T07:35:15;0.32;;;0.32;;
58621;SDS011;44389;51.578;5.456;2024-03-02T07:37:41;0.38;;;0.38;;
58621;SDS011;44389;51.578;5.456;2024-03-02T07:40:07;0.40;;;0.40;;
58621;SDS011;44389;51.578;5.456;2024-03-02T07:42:39;0.30;;;0.30;;
58621;SDS011;44389;51.578;5.456;2024-03-02T07:45:05;0.38;;;0.38;;
58621;SDS011;44389;51.578;5.456;2024-03-02T07:47:32;0.35;;;0.35;;
58621;SDS011;44389;51.578;5.456;2024-03-02T07:49:58;0.32;;;0.32;;
58621;SDS011;44389;51.578;5.456;2024-03-02T07:52:23;0.30;;;0.30;;
58621;SDS011;44389;51.578;5.456;2024-03-02T07:54:49;0.25;;;0.25;;
58621;SDS011;44389;51.578;5.456;2024-03-02T07:57:14;0.30;;;0.30;;
58621;SDS011;44389;51.578;5.456;2024-03-02T07:59:39;0.38;;;0.38;;
58621;SDS011;44389;51.578;5.456;2024-03-02T08:02:05;0.30;;;0.30;;
58621;SDS011;44389;51.578;5.456;2024-03-02T08:04:31;0.30;;;0.30;;
58621;SDS011;44389;51.578;5.456;2024-03-02T08:06:56;0.40;;;0.40;;
58621;SDS011;44389;51.578;5.456;2024-03-02T08:09:22;0.32;;;0.32;;
58621;SDS011;44389;51.578;5.456;2024-03-02T08:11:47;0.30;;;0.30;;
58621;SDS011;44389;51.578;5.456;2024-03-02T08:14:13;0.40;;;0.40;;
58621;SDS011;44389;51.578;5.456;2024-03-02T08:16:38;0.30;;;0.30;;
58621;SDS011;44389;51.578;5.456;2024-03-02T08:19:03;0.40;;;0.40;;
58621;SDS011;44389;51.578;5.456;2024-03-02T08:21:28;0.30;;;0.30;;
58621;SDS011;44389;51.578;5.456;2024-03-02T08:23:55;0.30;;;0.30;;
58621;SDS011;44389;51.578;5.456;2024-03-02T08:26:22;0.30;;;0.30;;
58621;SDS011;44389;51.578;5.456;2024-03-02T08:28:47;0.38;;;0.38;;
58621;SDS011;44389;51.578;5.456;2024-03-02T08:31:13;0.30;;;0.30;;
58621;SDS011;44389;51.578;5.456;2024-03-02T08:33:38;0.30;;;0.30;;
58621;SDS011;44389;51.578;5.456;2024-03-02T08:36:03;0.30;;;0.30;;
58621;SDS011;44389;51.578;5.456;2024-03-02T08:38:29;0.40;;;0.40;;
58621;SDS011;44389;51.578;5.456;2024-03-02T08:40:54;0.40;;;0.40;;
58621;SDS011;44389;51.578;5.456;2024-03-02T08:43:20;0.30;;;0.30;;
58621;SDS011;44389;51.578;5.456;2024-03-02T08:45:47;0.40;;;0.40;;
58621;SDS011;44389;51.578;5.456;2024-03-02T08:48:12;0.30;;;0.30;;
58621;SDS011;44389;51.578;5.456;2024-03-02T08:50:38;0.30;;;0.30;;
58621;SDS011;44389;51.578;5.456;2024-03-02T08:53:03;0.30;;;0.30;;
58621;SDS011;44389;51.578;5.456;2024-03-02T08:55:29;0.30;;;0.30;;
58621;SDS011;44389;51.578;5.456;2024-03-02T08:57:54;0.28;;;0.28;;
58621;SDS011;44389;51.578;5.456;2024-03-02T09:00:20;0.30;;;0.30;;
58621;SDS011;44389;51.578;5.456;2024-03-02T09:02:46;0.20;;;0.20;;
58621;SDS011;44389;51.578;5.456;2024-03-02T09:05:11;0.20;;;0.20;;
58621;SDS011;44389;51.578;5.456;2024-03-02T09:07:37;0.30;;;0.30;;
58621;SDS011;44389;51.578;5.456;2024-03-02T09:10:03;0.40;;;0.40;;
58621;SDS011;44389;51.578;5.456;2024-03-02T09:12:29;0.30;;;0.30;;
58621;SDS011;44389;51.578;5.456;2024-03-02T09:14:55;0.25;;;0.25;;
58621;SDS011;44389;51.578;5.456;2024-03-02T09:17:20;0.30;;;0.30;;
58621;SDS011;44389;51.578;5.456;2024-03-02T09:19:46;0.22;;;0.22;;
58621;SDS011;44389;51.578;5.456;2024-03-02T09:22:11;0.30;;;0.30;;
58621;SDS011;44389;51.578;5.456;2024-03-02T09:24:36;0.30;;;0.30;;
58621;SDS011;44389;51.578;5.456;2024-03-02T09:27:02;0.30;;;0.30;;
58621;SDS011;44389;51.578;5.456;2024-03-02T09:29:27;0.25;;;0.25;;
58621;SDS011;44389;51.578;5.456;2024-03-02T09:31:53;0.30;;;0.30;;
58621;SDS011;44389;51.578;5.456;2024-03-02T09:34:18;0.20;;;0.20;;
58621;SDS011;44389;51.578;5.456;2024-03-02T09:36:43;0.30;;;0.30;;
58621;SDS011;44389;51.578;5.456;2024-03-02T09:39:09;0.30;;;0.30;;
58621;SDS011;44389;51.578;5.456;2024-03-02T09:41:35;0.30;;;0.30;;
58621;SDS011;44389;51.578;5.456;2024-03-02T09:44:02;0.30;;;0.30;;
58621;SDS011;44389;51.578;5.456;2024-03-02T09:46:27;0.20;;;0.20;;
58621;SDS011;44389;51.578;5.456;2024-03-02T09:48:53;0.30;;;0.30;;
58621;SDS011;44389;51.578;5.456;2024-03-02T09:51:19;0.30;;;0.30;;
58621;SDS011;44389;51.578;5.456;2024-03-02T09:53:44;0.22;;;0.22;;
58621;SDS011;44389;51.578;5.456;2024-03-02T09:56:11;0.30;;;0.30;;
58621;SDS011;44389;51.578;5.456;2024-03-02T09:58:38;0.30;;;0.30;;
58621;SDS011;44389;51.578;5.456;2024-03-02T10:01:05;0.20;;;0.20;;
58621;SDS011;44389;51.578;5.456;2024-03-02T10:03:31;0.20;;;0.20;;
58621;SDS011;44389;51.578;5.456;2024-03-02T10:08:43;0.20;;;0.20;;
58621;SDS011;44389;51.578;5.456;2024-03-02T10:11:09;0.28;;;0.28;;
58621;SDS011;44389;51.578;5.456;2024-03-02T10:13:34;0.20;;;0.20;;
58621;SDS011;44389;51.578;5.456;2024-03-02T10:15:59;0.20;;;0.20;;
58621;SDS011;44389;51.578;5.456;2024-03-02T10:18:37;0.20;;;0.20;;
58621;SDS011;44389;51.578;5.456;2024-03-02T10:21:14;0.20;;;0.20;;
58621;SDS011;44389;51.578;5.456;2024-03-02T10:23:40;0.20;;;0.20;;
58621;SDS011;44389;51.578;5.456;2024-03-02T10:26:26;0.20;;;0.20;;
58621;SDS011;44389;51.578;5.456;2024-03-02T10:28:51;0.20;;;0.20;;
58621;SDS011;44389;51.578;5.456;2024-03-02T10:31:24;0.20;;;0.20;;
58621;SDS011;44389;51.578;5.456;2024-03-02T10:33:52;0.20;;;0.20;;
58621;SDS011;44389;51.578;5.456;2024-03-02T10:36:19;0.20;;;0.20;;
58621;SDS011;44389;51.578;5.456;2024-03-02T10:38:44;0.20;;;0.20;;
58621;SDS011;44389;51.578;5.456;2024-03-02T10:41:12;0.20;;;0.20;;
58621;SDS011;44389;51.578;5.456;2024-03-02T10:43:45;0.20;;;0.20;;
58621;SDS011;44389;51.578;5.456;2024-03-02T10:46:14;0.10;;;0.10;;
58621;SDS011;44389;51.578;5.456;2024-03-02T10:48:43;0.20;;;0.20;;
58621;SDS011;44389;51.578;5.456;2024-03-02T10:51:11;0.17;;;0.17;;
58621;SDS011;44389;51.578;5.456;2024-03-02T10:53:36;0.20;;;0.20;;
58621;SDS011;44389;51.578;5.456;2024-03-02T10:56:02;0.20;;;0.20;;
58621;SDS011;44389;51.578;5.456;2024-03-02T10:58:32;0.10;;;0.10;;
58621;SDS011;44389;51.578;5.456;2024-03-02T11:01:02;0.20;;;0.20;;
58621;SDS011;44389;51.578;5.456;2024-03-02T11:03:33;0.10;;;0.10;;
58621;SDS011;44389;51.578;5.456;2024-03-02T11:06:02;0.20;;;0.20;;
58621;SDS011;44389;51.578;5.456;2024-03-02T11:08:31;0.10;;;0.10;;
58621;SDS011;44389;51.578;5.456;2024-03-02T11:11:01;0.20;;;0.20;;
58621;SDS011;44389;51.578;5.456;2024-03-02T11:13:31;0.10;;;0.10;;
58621;SDS011;44389;51.578;5.456;2024-03-02T11:16:05;0.20;;;0.20;;
58621;SDS011;44389;51.578;5.456;2024-03-02T11:18:40;0.20;;;0.20;;
58621;SDS011;44389;51.578;5.456;2024-03-02T11:21:06;0.10;;;0.10;;
58621;SDS011;44389;51.578;5.456;2024-03-02T11:23:32;0.20;;;0.20;;
58621;SDS011;44389;51.578;5.456;2024-03-02T11:28:48;0.10;;;0.10;;
58621;SDS011;44389;51.578;5.456;2024-03-02T11:31:13;0.10;;;0.10;;
58621;SDS011;44389;51.578;5.456;2024-03-02T11:33:39;0.20;;;0.20;;
58621;SDS011;44389;51.578;5.456;2024-03-02T11:36:06;0.10;;;0.10;;
58621;SDS011;44389;51.578;5.456;2024-03-02T11:38:33;0.20;;;0.20;;
58621;SDS011;44389;51.578;5.456;2024-03-02T11:41:00;0.17;;;0.17;;
58621;SDS011;44389;51.578;5.456;2024-03-02T11:45:59;0.10;;;0.10;;
58621;SDS011;44389;51.578;5.456;2024-03-02T11:48:25;0.20;;;0.20;;
58621;SDS011;44389;51.578;5.456;2024-03-02T11:50:51;0.10;;;0.10;;
58621;SDS011;44389;51.578;5.456;2024-03-02T11:53:17;0.20;;;0.20;;
58621;SDS011;44389;51.578;5.456;2024-03-02T11:55:44;0.20;;;0.20;;
58621;SDS011;44389;51.578;5.456;2024-03-02T11:58:13;0.20;;;0.20;;
58621;SDS011;44389;51.578;5.456;2024-03-02T12:00:39;0.17;;;0.17;;
58621;SDS011;44389;51.578;5.456;2024-03-02T12:05:34;0.20;;;0.20;;
58621;SDS011;44389;51.578;5.456;2024-03-02T12:08:01;0.10;;;0.10;;
58621;SDS011;44389;51.578;5.456;2024-03-02T12:10:28;0.20;;;0.20;;
58621;SDS011;44389;51.578;5.456;2024-03-02T12:13:00;0.13;;;0.13;;
58621;SDS011;44389;51.578;5.456;2024-03-02T12:15:28;0.10;;;0.10;;
58621;SDS011;44389;51.578;5.456;2024-03-02T12:17:55;0.10;;;0.10;;
58621;SDS011;44389;51.578;5.456;2024-03-02T12:20:22;0.15;;;0.15;;
58621;SDS011;44389;51.578;5.456;2024-03-02T12:22:49;0.10;;;0.10;;
58621;SDS011;44389;51.578;5.456;2024-03-02T12:25:18;0.10;;;0.10;;
58621;SDS011;44389;51.578;5.456;2024-03-02T12:27:48;0.10;;;0.10;;
58621;SDS011;44389;51.578;5.456;2024-03-02T12:30:18;0.20;;;0.20;;
58621;SDS011;44389;51.578;5.456;2024-03-02T12:32:44;0.13;;;0.13;;
58621;SDS011;44389;51.578;5.456;2024-03-02T12:35:12;0.20;;;0.20;;
58621;SDS011;44389;51.578;5.456;2024-03-02T12:37:44;0.10;;;0.10;;
58621;SDS011;44389;51.578;5.456;2024-03-02T12:40:12;0.10;;;0.10;;
58621;SDS011;44389;51.578;5.456;2024-03-02T12:42:39;0.10;;;0.10;;
58621;SDS011;44389;51.578;5.456;2024-03-02T12:45:05;0.10;;;0.10;;
58621;SDS011;44389;51.578;5.456;2024-03-02T12:47:31;0.20;;;0.20;;
58621;SDS011;44389;51.578;5.456;2024-03-02T12:49:58;0.10;;;0.10;;
58621;SDS011;44389;51.578;5.456;2024-03-02T12:52:24;0.10;;;0.10;;
58621;SDS011;44389;51.578;5.456;2024-03-02T12:54:49;0.10;;;0.10;;
58621;SDS011;44389;51.578;5.456;2024-03-02T12:57:18;0.10;;;0.10;;
58621;SDS011;44389;51.578;5.456;2024-03-02T12:59:47;0.10;;;0.10;;
58621;SDS011;44389;51.578;5.456;2024-03-02T13:02:18;0.17;;;0.17;;
58621;SDS011;44389;51.578;5.456;2024-03-02T13:04:44;0.13;;;0.13;;
58621;SDS011;44389;51.578;5.456;2024-03-02T13:07:10;0.20;;;0.20;;
58621;SDS011;44389;51.578;5.456;2024-03-02T13:09:38;0.20;;;0.20;;
58621;SDS011;44389;51.578;5.456;2024-03-02T13:12:04;0.20;;;0.20;;
58621;SDS011;44389;51.578;5.456;2024-03-02T13:14:32;0.10;;;0.10;;
58621;SDS011;44389;51.578;5.456;2024-03-02T13:16:58;0.10;;;0.10;;
58621;SDS011;44389;51.578;5.456;2024-03-02T13:19:25;0.10;;;0.10;;
58621;SDS011;44389;51.578;5.456;2024-03-02T13:21:50;0.10;;;0.10;;
58621;SDS011;44389;51.578;5.456;2024-03-02T13:24:16;0.10;;;0.10;;
58621;SDS011;44389;51.578;5.456;2024-03-02T13:26:41;0.10;;;0.10;;
58621;SDS011;44389;51.578;5.456;2024-03-02T13:29:06;0.10;;;0.10;;
58621;SDS011;44389;51.578;5.456;2024-03-02T13:31:32;0.10;;;0.10;;
58621;SDS011;44389;51.578;5.456;2024-03-02T13:33:58;0.10;;;0.10;;
58621;SDS011;44389;51.578;5.456;2024-03-02T13:36:23;0.10;;;0.10;;
58621;SDS011;44389;51.578;5.456;2024-03-02T13:38:49;0.10;;;0.10;;
58621;SDS011;44389;51.578;5.456;2024-03-02T13:41:14;0.10;;;0.10;;
58621;SDS011;44389;51.578;5.456;2024-03-02T13:43:39;0.10;;;0.10;;
58621;SDS011;44389;51.578;5.456;2024-03-02T13:46:05;0.10;;;0.10;;
58621;SDS011;44389;51.578;5.456;2024-03-02T13:48:31;0.20;;;0.20;;
58621;SDS011;44389;51.578;5.456;2024-03-02T13:50:57;0.10;;;0.10;;
58621;SDS011;44389;51.578;5.456;2024-03-02T13:53:22;0.10;;;0.10;;
58621;SDS011;44389;51.578;5.456;2024-03-02T13:55:48;0.10;;;0.10;;
58621;SDS011;44389;51.578;5.456;2024-03-02T13:58:13;0.10;;;0.10;;
58621;SDS011;44389;51.578;5.456;2024-03-02T14:00:39;0.10;;;0.10;;
58621;SDS011;44389;51.578;5.456;2024-03-02T14:03:07;0.10;;;0.10;;
58621;SDS011;44389;51.578;5.456;2024-03-02T14:05:33;0.10;;;0.10;;
58621;SDS011;44389;51.578;5.456;2024-03-02T14:07:59;0.10;;;0.10;;
58621;SDS011;44389;51.578;5.456;2024-03-02T14:10:27;0.10;;;0.10;;
58621;SDS011;44389;51.578;5.456;2024-03-02T14:12:53;0.10;;;0.10;;
58621;SDS011;44389;51.578;5.456;2024-03-02T14:15:20;0.10;;;0.10;;
58621;SDS011;44389;51.578;5.456;2024-03-02T14:17:45;0.10;;;0.10;;
58621;SDS011;44389;51.578;5.456;2024-03-02T14:20:11;0.10;;;0.10;;
58621;SDS011;44389;51.578;5.456;2024-03-02T14:22:38;0.10;;;0.10;;
58621;SDS011;44389;51.578;5.456;2024-03-02T14:25:03;0.10;;;0.10;;
58621;SDS011;44389;51.578;5.456;2024-03-02T14:27:29;0.10;;;0.10;;
58621;SDS011;44389;51.578;5.456;2024-03-02T14:29:54;0.10;;;0.10;;
58621;SDS011;44389;51.578;5.456;2024-03-02T14:32:19;0.20;;;0.20;;
58621;SDS011;44389;51.578;5.456;2024-03-02T14:34:45;0.10;;;0.10;;
58621;SDS011;44389;51.578;5.456;2024-03-02T14:37:11;0.10;;;0.10;;
58621;SDS011;44389;51.578;5.456;2024-03-02T14:39:38;0.20;;;0.20;;
58621;SDS011;44389;51.578;5.456;2024-03-02T14:42:04;0.10;;;0.10;;
58621;SDS011;44389;51.578;5.456;2024-03-02T14:44:29;0.10;;;0.10;;
58621;SDS011;44389;51.578;5.456;2024-03-02T14:46:55;0.10;;;0.10;;
58621;SDS011;44389;51.578;5.456;2024-03-02T14:49:20;0.10;;;0.10;;
58621;SDS011;44389;51.578;5.456;2024-03-02T14:51:45;0.20;;;0.20;;
58621;SDS011;44389;51.578;5.456;2024-03-02T14:54:11;0.20;;;0.20;;
58621;SDS011;44389;51.578;5.456;2024-03-02T14:56:36;0.20;;;0.20;;
58621;SDS011;44389;51.578;5.456;2024-03-02T14:59:01;0.10;;;0.10;;
58621;SDS011;44389;51.578;5.456;2024-03-02T15:01:27;0.20;;;0.20;;